METAR Data

Data at: 1004 UTC 25 Mar 2019

METAR for:KSDL (Scottsdale Muni, AZ, US)
Text:KSDL 250953Z AUTO 00000KT 10SM CLR 13/02 A3012 RMK AO2 SLP182 T01280017 $
Temperature: 12.8°C ( 55°F)
Dewpoint: 1.7°C ( 35°F) [RH = 47%]
Pressure (altimeter):30.12 inches Hg (1020.1 mb) [Sea level pressure: 1018.2 mb]
Winds:calm
Visibility:10 or more sm (16+ km)
Ceiling:at least 12,000 feet AGL
Clouds:sky clear below 12,000 feet AGL
QC Flag:automated observation with no human augmentation; SOME DATA ABOVE MAY BE INACCURATE!!!"$" is an indication the sensor requires maintenance.